• Join FlightAware (Why Join?)
  • Login
  • US Flag 
08:54PM EST


 

Airport Tracker/Info


-or-


 

Live Flight TrackerFlight Track Log ✈ SWA1960 ✈ 24-Apr-2013 ✈ KMHT - KBWI

Flight Track Log - Related Links

Times and Time Zones

All times are in EDT time to prevent confusion due to time zone crossing. See the SWA1960 flight status page for this flight to view local times or setup timezone preferences in your user account.

Time Position Orientation Groundspeed Altitude Reporting Facility
EDT Latitude Longitude Course Direction KTS MPH feet Rate Location/Type
12:14PM 42.9500 -71.4333 332° Northwest 154 177 1,400  Level KA90
12:15PM 43.0028 -71.4719 332° Northwest 223 257 4,400 2,940 Climbing Boston Center
12:16PM 43.0522 -71.4228 36° Northeast 205 236 7,800 2,820 Climbing Boston Center
12:17PM 43.0661 -71.3317 78° East 220 253 10,100 1,440 Climbing Boston Center
12:18PM 43.0628 -71.2067 92° East 284 327 11,000 2,400 Climbing Boston Center
12:19PM 43.0714 -71.0475 86° East 343 395 15,400 3,780 Climbing Boston Center
12:20PM 43.0281 -70.9206 115° Southeast 377 434 18,600 3,120 Climbing Boston Center
12:21PM 42.9217 -70.9147 178° South 314 361 21,700 2,700 Climbing Boston Center
12:22PM 42.8139 -70.9656 199° South 346 398 24,100 2,520 Climbing Boston Center
12:23PM 42.7000 -71.0219 200° South 395 455 26,800 2,940 Climbing Boston Center
12:24PM 42.5861 -71.0753 199° South 418 481 30,000 2,640 Climbing Boston Center
12:25PM 42.4742 -71.1339 201° Southwest 437 503 32,100 1,680 Climbing Boston Center
12:26PM 42.3919 -71.2481 226° Southwest 423 487 33,400 900 Climbing Boston Center
12:27PM 42.3497 -71.3950 249° West 412 474 34,000 300 Climbing Boston Center
12:28PM 42.3050 -71.5389 247° West 412 474 34,000  Level Boston Center
12:29PM 42.2561 -71.6828 245° Southwest 417 480 34,000  Level Boston Center
12:30PM 42.2133 -71.8261 248° West 423 487 34,000  Level Boston Center
12:31PM 42.1681 -71.9694 247° West 418 481 34,000  Level Boston Center
12:32PM 42.1228 -72.1125 247° West 418 481 34,000  Level Boston Center
12:33PM 42.0792 -72.2556 248° West 418 481 34,000  Level Boston Center
12:34PM 42.0336 -72.3953 246° West 418 481 34,000  Level Boston Center
12:35PM 41.9878 -72.5378 247° West 418 481 34,000  Level Boston Center
12:36PM 41.9436 -72.6717 246° West 411 473 34,000  Level Boston Center
12:37PM 41.8683 -72.7886 229° Southwest 400 460 34,000  Level Boston Center
12:38PM 41.7847 -72.9022 225° Southwest 414 476 34,000  Level Boston Center
12:39PM 41.7050 -73.0128 226° Southwest 424 488 34,000  Level Boston Center
12:40PM 41.6189 -73.1314 226° Southwest 419 482 34,000  Level Boston Center
12:42PM 41.5033 -73.2864 225° Southwest 414 476 34,000  Level New York Center
12:43PM 41.4242 -73.3914 225° Southwest 414 476 34,000  Level New York Center
12:44PM 41.3467 -73.4989 226° Southwest 414 476 34,000  Level New York Center
12:45PM 41.2672 -73.6033 225° Southwest 414 476 34,000  Level New York Center
12:46PM 41.1997 -73.7217 233° Southwest 414 476 34,000  Level New York Center
12:47PM 41.1300 -73.8397 232° Southwest 409 471 34,000  Level New York Center
12:48PM 41.0606 -73.9522 231° Southwest 409 471 34,000 -1,200 Level New York Center
12:49PM 40.9925 -74.0700 233° Southwest 409 471 31,700 -2,100 Descending New York Center
12:50PM 40.9247 -74.1847 232° Southwest 409 471 29,800 -1,440 Descending New York Center
12:51PM 40.8461 -74.3069 230° Southwest 421 484 28,800 -900 Descending New York Center
12:52PM 40.7717 -74.4292 231° Southwest 426 490 28,000 -720 Descending New York Center
12:53PM 40.6969 -74.5539 232° Southwest 431 496 27,400 -840 Descending New York Center
12:54PM 40.6147 -74.6450 220° Southwest 426 490 26,400 -1,140 Descending New York Center
12:55PM 40.5147 -74.7075 205° Southwest 397 457 25,200 -1,200 Descending New York Center
12:56PM 40.4389 -74.7931 221° Southwest 389 448 24,100 -1,140 Descending New York Center
12:57PM 40.3786 -74.9067 235° Southwest 377 434 23,000 -1,080 Descending New York Center
12:58PM 40.3228 -75.0150 236° Southwest 377 434 22,000 -1,020 Descending New York Center
12:59PM 40.2667 -75.1231 236° Southwest 370 426 21,100 -1,020 Descending New York Center
01:00PM 40.2106 -75.2311 236° Southwest 364 419 20,100 -1,320 Descending New York Center
01:01PM 40.1478 -75.3439 234° Southwest 364 419 18,500 -1,080 Descending New York Center
01:02PM 40.0925 -75.4297 230° Southwest 356 410 18,000 -300 Descending New York Center
01:03PM 40.0217 -75.5281 227° Southwest 344 396 18,000 -240 Level New York Center
01:04PM 39.9642 -75.6081 227° Southwest 344 396 17,600 -720 Descending New York Center
01:05PM 39.8997 -75.7092 230° Southwest 338 389 16,600 -780 Descending New York Center
01:06PM 39.8542 -75.7953 235° Southwest 333 383 16,100 -600 Descending New York Center
01:07PM 39.8000 -75.8967 235° Southwest 327 376 15,400 -1,260 Descending New York Center
01:09PM 39.7000 -76.1000 237° Southwest 283 326 12,100 -1,320 Descending Potomac TRACON
01:10PM 39.6500 -76.1667 226° Southwest 267 307 11,400 -1,260 Descending Potomac TRACON
01:11PM 39.6167 -76.2500 243° Southwest 259 298 9,800 -1,680 Descending Potomac TRACON
01:12PM 39.5667 -76.3333 232° Southwest 256 295 8,100 -1,560 Descending Potomac TRACON
01:13PM 39.5333 -76.4000 237° Southwest 250 288 6,700 -1,440 Descending Potomac TRACON
01:14PM 39.5167 -76.4667 252° West 246 283 5,400 -600 Descending Potomac TRACON
01:16PM 39.4500 -76.6167 240° Southwest 240 276 5,000 -420 Descending Potomac TRACON
01:17PM 39.4167 -76.7000 243° Southwest 241 277 4,200 -540 Descending Potomac TRACON
01:18PM 39.3833 -76.7833 243° Southwest 247 284 4,000 -120 Descending Potomac TRACON
01:19PM 39.3500 -76.8500 237° Southwest 208 239 4,000 -360 Level Potomac TRACON
01:20PM 39.3000 -76.8833 207° Southwest 209 241 3,300 -720 Descending Potomac TRACON
01:21PM 39.2500 -76.8667 166° South 214 246 2,700 -660 Descending Potomac TRACON
01:22PM 39.2000 -76.8333 153° Southeast 187 215 2,000 -660 Descending Potomac TRACON
01:23PM 39.1833 -76.7833 113° Southeast 179 206 1,500 -600 Descending Potomac TRACON
01:24PM 39.1833 -76.7333 90° East 135 155 900 -600 Descending Potomac TRACON
01:26PM 39.1667 -76.6667 270° West  Level FlightAware Approximate
01:33PM 39.1754 -76.6683 270° West  Level Estimated
01:34PM 39.1754 -76.6683 270° West  Level Estimated
01:35PM 39.1754 -76.6683 270° West  Level Estimated